Terminal Aerodrome Forecast
Issued by NWS

Home | Current Version | Previous Version | Text Only | Print | Product List | Glossary On
Versions: 1 2 3 4 5 6 7 8 9 10 11 12 13
170
FTUS45 KABQ 282330
TAFGUP
TAF
KGUP 282330Z 2900/2924 22007KT P6SM VCSH BKN100
     FM290300 12006KT P6SM BKN120
     FM290800 VRB03KT P6SM SCT120
     FM291800 22010KT P6SM FEW120
     FM292100 23013G22KT P6SM SCT150=

USA.gov is the U.S. government's official web portal to all federal, state and local government web resources and services.